createdAt,value
2023-05-09T00:00:23.986Z,100
2023-05-09T00:01:23.780Z,100
2023-05-09T00:02:23.922Z,100
2023-05-09T00:03:23.826Z,100
2023-05-09T00:04:24.287Z,100
2023-05-09T00:05:24.269Z,100
2023-05-09T00:06:24.086Z,100
2023-05-09T00:07:24.050Z,100
2023-05-09T00:08:23.863Z,100
2023-05-09T00:09:23.908Z,100
2023-05-09T00:10:23.930Z,100
2023-05-09T00:11:23.971Z,100
2023-05-09T00:12:23.994Z,100
2023-05-09T00:13:24.159Z,100
2023-05-09T00:14:24.032Z,100
2023-05-09T00:15:24.224Z,100
2023-05-09T00:16:24.125Z,100
2023-05-09T00:17:24.312Z,100
2023-05-09T00:18:24.144Z,100
2023-05-09T00:19:26.238Z,100
2023-05-09T00:20:24.144Z,100
2023-05-09T00:21:24.115Z,100
2023-05-09T00:22:24.119Z,100
2023-05-09T00:23:24.128Z,100
2023-05-09T00:24:24.130Z,100
2023-05-09T00:25:24.607Z,100
2023-05-09T00:26:24.167Z,100
2023-05-09T00:27:24.210Z,100
2023-05-09T00:28:24.200Z,100
2023-05-09T00:29:24.225Z,100
2023-05-09T00:30:24.245Z,100
2023-05-09T00:31:24.266Z,100
2023-05-09T00:32:24.376Z,100
2023-05-09T00:33:24.282Z,100
2023-05-09T00:34:24.341Z,100
2023-05-09T00:35:24.322Z,100
2023-05-09T00:36:24.336Z,100
2023-05-09T00:37:24.609Z,100
2023-05-09T00:38:24.363Z,100
2023-05-09T00:39:24.356Z,100
2023-05-09T00:40:24.410Z,100
2023-05-09T00:41:24.516Z,100
2023-05-09T00:42:24.495Z,100
2023-05-09T00:43:24.499Z,100
2023-05-09T00:44:24.969Z,100
2023-05-09T00:45:25.154Z,100
2023-05-09T00:46:25.197Z,100
2023-05-09T00:47:25.395Z,100
2023-05-09T00:48:25.036Z,100
2023-05-09T00:49:25.069Z,100
2023-05-09T00:50:25.051Z,100
2023-05-09T00:51:25.278Z,100
2023-05-09T00:52:25.649Z,100
2023-05-09T00:53:25.070Z,100
2023-05-09T00:54:25.708Z,100
2023-05-09T00:55:26.118Z,100
2023-05-09T00:56:25.321Z,100
2023-05-09T00:57:25.206Z,100
2023-05-09T00:58:25.462Z,100
2023-05-09T00:59:25.201Z,100
2023-05-09T01:00:25.364Z,100
2023-05-09T01:01:25.364Z,100
2023-05-09T01:02:25.544Z,100
2023-05-09T01:03:25.983Z,100
2023-05-09T01:04:26.088Z,100
2023-05-09T01:05:30.295Z,100
2023-05-09T01:07:33.284Z,100
2023-05-09T01:16:52.112Z,100
2023-05-09T01:17:59.765Z,100
2023-05-09T01:18:55.721Z,100
2023-05-09T01:19:57.108Z,100
2023-05-09T01:21:00.424Z,100
2023-05-09T01:21:58.056Z,100
2023-05-09T01:26:14.275Z,100
2023-05-09T01:28:13.884Z,100
2023-05-09T01:30:16.163Z,100
2023-05-09T01:31:16.695Z,100
2023-05-09T01:32:17.702Z,100
2023-05-09T01:33:19.142Z,100
2023-05-09T01:34:17.974Z,100
2023-05-09T01:35:16.510Z,100
2023-05-09T01:36:16.999Z,100
2023-05-09T01:37:18.496Z,100
2023-05-09T01:38:17.700Z,100
2023-05-09T01:39:17.746Z,100
2023-05-09T01:40:17.563Z,100
2023-05-09T01:41:17.490Z,100
2023-05-09T01:42:18.479Z,100
2023-05-09T01:43:17.559Z,100
2023-05-09T01:44:16.676Z,100
2023-05-09T01:45:16.633Z,100
2023-05-09T01:46:21.861Z,100
2023-05-09T01:47:19.597Z,100
2023-05-09T01:48:18.577Z,100
2023-05-09T01:49:20.160Z,100
2023-05-09T01:50:18.832Z,100
2023-05-09T01:51:19.316Z,100
2023-05-09T01:52:19.664Z,100
2023-05-09T01:53:19.784Z,100
2023-05-09T01:54:20.548Z,100
2023-05-09T01:55:19.235Z,100
2023-05-09T01:56:18.874Z,100
2023-05-09T01:57:19.191Z,100
2023-05-09T01:58:20.155Z,100
2023-05-09T01:59:19.660Z,100
2023-05-09T02:00:19.620Z,100
2023-05-09T02:01:19.776Z,100
2023-05-09T02:02:19.190Z,100
2023-05-09T02:03:19.244Z,100
2023-05-09T02:04:19.089Z,100
2023-05-09T02:05:19.983Z,100
2023-05-09T02:06:20.615Z,100
2023-05-09T02:07:19.555Z,100
2023-05-09T02:08:19.390Z,100
2023-05-09T02:09:19.884Z,100
2023-05-09T02:10:20.316Z,100
2023-05-09T02:11:18.969Z,100
2023-05-09T02:12:19.174Z,100
2023-05-09T02:13:19.093Z,100
2023-05-09T02:14:19.038Z,100
2023-05-09T02:15:19.353Z,100
2023-05-09T02:16:20.648Z,100
2023-05-09T02:17:19.070Z,100
2023-05-09T02:18:19.094Z,100
2023-05-09T02:19:19.093Z,100
2023-05-09T02:20:19.201Z,100
2023-05-09T02:21:19.202Z,100
2023-05-09T02:22:19.189Z,100
2023-05-09T02:23:19.749Z,100
2023-05-09T02:24:19.197Z,100
2023-05-09T02:25:19.540Z,100
2023-05-09T02:26:19.502Z,100
2023-05-09T02:27:20.194Z,100
2023-05-09T02:28:20.851Z,100
2023-05-09T02:29:21.271Z,100
2023-05-09T02:30:21.085Z,100
2023-05-09T02:31:21.225Z,100
2023-05-09T02:32:21.788Z,100
2023-05-09T02:33:19.326Z,100
2023-05-09T02:34:19.847Z,100
2023-05-09T02:35:20.229Z,100
2023-05-09T02:36:19.675Z,100
2023-05-09T02:37:20.455Z,100
2023-05-09T02:38:19.887Z,100
2023-05-09T02:39:19.480Z,100
2023-05-09T02:40:20.472Z,100
2023-05-09T02:41:19.612Z,100
2023-05-09T02:42:22.977Z,100
2023-05-09T02:43:19.674Z,100
2023-05-09T02:44:19.623Z,100
2023-05-09T02:45:19.642Z,100
2023-05-09T02:46:19.718Z,100
2023-05-09T02:47:20.103Z,100
2023-05-09T02:48:19.951Z,100
2023-05-09T02:49:31.517Z,100
2023-05-09T02:50:24.236Z,100
2023-05-09T02:51:24.291Z,100
2023-05-09T02:52:24.387Z,100
2023-05-09T02:53:24.464Z,100
2023-05-09T02:54:24.213Z,100
2023-05-09T02:55:24.440Z,100
2023-05-09T02:56:24.137Z,100
2023-05-09T02:57:24.227Z,100
2023-05-09T02:58:24.290Z,100
2023-05-09T02:59:24.481Z,100
2023-05-09T03:00:24.466Z,100
2023-05-09T03:01:24.539Z,100
2023-05-09T03:02:24.331Z,100
2023-05-09T03:03:24.355Z,100
2023-05-09T03:04:24.327Z,100
2023-05-09T03:05:24.380Z,100
2023-05-09T03:06:24.439Z,100
2023-05-09T03:07:24.360Z,100
2023-05-09T03:08:24.338Z,100
2023-05-09T03:09:24.394Z,100
2023-05-09T03:10:24.435Z,100
2023-05-09T03:11:24.448Z,100
2023-05-09T03:12:24.452Z,100
2023-05-09T03:13:24.483Z,100
2023-05-09T03:14:24.716Z,100
2023-05-09T03:15:24.665Z,100
2023-05-09T03:16:24.615Z,100
2023-05-09T03:17:24.756Z,100
2023-05-09T03:18:24.732Z,100
2023-05-09T03:19:24.583Z,100
2023-05-09T03:20:26.035Z,100
2023-05-09T03:21:24.633Z,100
2023-05-09T03:22:24.632Z,100
2023-05-09T03:23:24.640Z,100
2023-05-09T03:24:26.389Z,100
2023-05-09T03:25:24.919Z,100
2023-05-09T03:26:24.966Z,100
2023-05-09T03:27:24.696Z,100
2023-05-09T03:28:24.700Z,100
2023-05-09T03:29:24.927Z,100
2023-05-09T03:30:24.849Z,100
2023-05-09T03:31:24.771Z,100
2023-05-09T03:32:24.844Z,100
2023-05-09T03:33:24.731Z,100
2023-05-09T03:34:24.782Z,100
2023-05-09T03:35:24.789Z,100
2023-05-09T03:36:24.849Z,100
2023-05-09T03:37:26.916Z,100
2023-05-09T03:38:24.839Z,100
2023-05-09T03:39:25.092Z,100
2023-05-09T03:40:24.938Z,100
2023-05-09T03:41:25.097Z,100
2023-05-09T03:42:25.032Z,100
2023-05-09T03:43:24.916Z,100
2023-05-09T03:44:25.435Z,100
2023-05-09T03:45:24.985Z,100
2023-05-09T03:46:25.004Z,100
2023-05-09T03:47:25.172Z,100
2023-05-09T03:48:25.239Z,100
2023-05-09T03:49:25.156Z,100
2023-05-09T03:50:25.049Z,100
2023-05-09T03:51:25.057Z,100
2023-05-09T03:52:25.067Z,100
2023-05-09T03:53:25.034Z,100
2023-05-09T03:54:25.022Z,100
2023-05-09T03:55:25.122Z,100
2023-05-09T03:56:25.165Z,100
2023-05-09T03:57:25.137Z,100
2023-05-09T03:58:25.386Z,100
2023-05-09T03:59:25.150Z,100
2023-05-09T04:00:25.216Z,100
2023-05-09T04:01:25.370Z,100
2023-05-09T04:02:25.353Z,100
2023-05-09T04:03:25.280Z,100
2023-05-09T04:04:25.372Z,100
2023-05-09T04:05:25.359Z,100
2023-05-09T04:06:25.240Z,100
2023-05-09T04:07:25.469Z,100
2023-05-09T04:08:25.490Z,100
2023-05-09T04:09:25.475Z,100
2023-05-09T04:10:25.270Z,100
2023-05-09T04:11:25.252Z,100
2023-05-09T04:12:25.307Z,100
2023-05-09T04:13:25.471Z,100
2023-05-09T04:14:25.577Z,100
2023-05-09T04:15:25.370Z,100
2023-05-09T04:16:25.609Z,100
2023-05-09T04:17:25.425Z,100
2023-05-09T04:18:25.440Z,100
2023-05-09T04:19:25.602Z,100
2023-05-09T04:20:25.635Z,100
2023-05-09T04:21:25.434Z,100
2023-05-09T04:22:25.488Z,100
2023-05-09T04:23:25.837Z,100
2023-05-09T04:24:25.475Z,100
2023-05-09T04:25:25.574Z,100
2023-05-09T04:26:25.504Z,100
2023-05-09T04:27:25.553Z,100
2023-05-09T04:28:25.527Z,100
2023-05-09T04:29:25.538Z,100
2023-05-09T04:30:25.778Z,100
2023-05-09T04:31:25.686Z,100
2023-05-09T04:32:25.554Z,100
2023-05-09T04:33:25.589Z,100
2023-05-09T04:34:25.802Z,100
2023-05-09T04:35:25.604Z,100
2023-05-09T04:36:25.641Z,100
2023-05-09T04:37:25.650Z,100
2023-05-09T04:38:25.637Z,100
2023-05-09T04:39:25.648Z,100
2023-05-09T04:40:27.053Z,100
2023-05-09T04:41:25.681Z,100
2023-05-09T04:42:25.959Z,100
2023-05-09T04:43:25.853Z,100
2023-05-09T04:44:25.707Z,100
2023-05-09T04:45:25.817Z,100
2023-05-09T04:46:25.971Z,100
2023-05-09T04:47:26.045Z,100
2023-05-09T04:48:25.778Z,100
2023-05-09T04:49:25.783Z,100
2023-05-09T04:50:25.864Z,100
2023-05-09T04:51:26.065Z,100
2023-05-09T04:52:25.829Z,100
2023-05-09T04:53:25.842Z,100
2023-05-09T04:54:25.868Z,100
2023-05-09T04:55:25.865Z,100
2023-05-09T04:56:26.146Z,100
2023-05-09T04:57:26.022Z,100
2023-05-09T04:58:25.930Z,100
2023-05-09T04:59:26.104Z,100
2023-05-09T05:00:25.970Z,100
2023-05-09T05:01:26.019Z,100
2023-05-09T05:02:26.077Z,100
2023-05-09T05:03:26.188Z,100
2023-05-09T05:04:26.221Z,100
2023-05-09T05:05:26.439Z,100
2023-05-09T05:06:26.054Z,100
2023-05-09T05:07:26.013Z,100
2023-05-09T05:08:26.063Z,100
2023-05-09T05:09:26.186Z,100
2023-05-09T05:10:26.105Z,100
2023-05-09T05:11:26.155Z,100
2023-05-09T05:12:26.065Z,100
2023-05-09T05:13:26.331Z,100
2023-05-09T05:14:26.519Z,100
2023-05-09T05:15:26.105Z,100
2023-05-09T05:16:26.163Z,100
2023-05-09T05:17:26.148Z,100
2023-05-09T05:18:26.168Z,100
2023-05-09T05:19:26.258Z,100
2023-05-09T05:20:26.208Z,100
2023-05-09T05:21:26.233Z,100
2023-05-09T05:22:26.260Z,100
2023-05-09T05:23:26.232Z,100
2023-05-09T05:24:26.278Z,100
2023-05-09T05:25:26.520Z,100
2023-05-09T05:26:26.306Z,100
2023-05-09T05:27:26.408Z,100
2023-05-09T05:28:26.484Z,100
2023-05-09T05:29:26.455Z,100
2023-05-09T05:30:26.327Z,100
2023-05-09T05:31:26.749Z,100
2023-05-09T05:32:26.587Z,100
2023-05-09T05:33:26.759Z,100
2023-05-09T05:34:26.362Z,100
2023-05-09T05:35:26.619Z,100
2023-05-09T05:36:26.544Z,100
2023-05-09T05:37:26.464Z,100
2023-05-09T05:38:26.461Z,100
2023-05-09T05:39:26.450Z,100
2023-05-09T05:40:26.509Z,100
2023-05-09T05:41:26.487Z,100
2023-05-09T05:42:26.701Z,100
2023-05-09T05:43:27.039Z,100
2023-05-09T05:44:26.757Z,100
2023-05-09T05:45:26.533Z,100
2023-05-09T05:46:26.544Z,100
2023-05-09T05:47:26.655Z,100
2023-05-09T05:48:26.571Z,100
2023-05-09T05:49:26.556Z,100
2023-05-09T05:50:26.626Z,100
2023-05-09T05:51:26.808Z,100
2023-05-09T05:52:26.599Z,100
2023-05-09T05:53:26.633Z,100
2023-05-09T05:54:26.672Z,100
2023-05-09T05:55:26.675Z,100
2023-05-09T05:56:27.285Z,100
2023-05-09T05:57:26.722Z,100
2023-05-09T05:58:26.743Z,98.81
2023-05-09T05:59:26.737Z,100
2023-05-09T06:00:26.748Z,100
2023-05-09T06:01:27.248Z,100
2023-05-09T06:02:26.843Z,100
2023-05-09T06:03:27.013Z,100
2023-05-09T06:04:26.757Z,98.21
2023-05-09T06:05:26.996Z,97.07
2023-05-09T06:06:27.017Z,100
2023-05-09T06:07:27.190Z,96.74
2023-05-09T06:08:26.813Z,95.28
2023-05-09T06:09:26.871Z,94.52
2023-05-09T06:10:27.064Z,92.72
2023-05-09T06:11:26.874Z,95.69
2023-05-09T06:12:28.067Z,93.19
2023-05-09T06:13:26.999Z,94.18
2023-05-09T06:14:26.928Z,93.94
2023-05-09T06:15:26.951Z,92.48
2023-05-09T06:16:27.535Z,88.48
2023-05-09T06:17:26.957Z,93.49
2023-05-09T06:18:27.034Z,87.83
2023-05-09T06:19:27.079Z,86.26
2023-05-09T06:20:27.024Z,89.73
2023-05-09T06:21:26.988Z,87.23
2023-05-09T06:22:27.033Z,84.27
2023-05-09T06:23:27.022Z,87.33
2023-05-09T06:24:35.882Z,91.18
2023-05-09T06:25:28.348Z,90.71
2023-05-09T06:26:28.487Z,89.4
2023-05-09T06:27:28.349Z,86.98
2023-05-09T06:28:28.486Z,83.41
2023-05-09T06:29:28.383Z,88.57
2023-05-09T06:30:28.398Z,85.61
2023-05-09T06:31:28.411Z,84.75
2023-05-09T06:32:28.597Z,81
2023-05-09T06:33:28.376Z,87.03
2023-05-09T06:34:28.485Z,86.11
2023-05-09T06:35:28.595Z,84.92
2023-05-09T06:36:28.600Z,88.26
2023-05-09T06:37:32.475Z,82.23
2023-05-09T06:38:29.172Z,86.21
2023-05-09T06:39:29.226Z,88.83
2023-05-09T06:40:29.190Z,88.17
2023-05-09T06:41:29.411Z,87.98
2023-05-09T06:42:29.430Z,86.68
2023-05-09T06:43:29.216Z,84.48
2023-05-09T06:44:29.395Z,84.02
2023-05-09T06:45:29.469Z,81.51
2023-05-09T06:46:29.530Z,84.78
2023-05-09T06:47:29.251Z,83.31
2023-05-09T06:48:29.530Z,82.17
2023-05-09T06:49:29.470Z,80.88
2023-05-09T06:50:31.466Z,85.08
2023-05-09T06:51:29.783Z,87.73
2023-05-09T06:52:29.601Z,82.92
2023-05-09T06:53:29.817Z,80.12
2023-05-09T06:54:29.648Z,81.38
2023-05-09T06:55:29.788Z,84.16
2023-05-09T06:56:29.667Z,78.92
2023-05-09T06:57:30.223Z,81.72
2023-05-09T06:58:29.797Z,82.51
2023-05-09T06:59:29.713Z,81.67
2023-05-09T07:00:30.060Z,81.94
2023-05-09T07:01:29.761Z,79.16
2023-05-09T07:02:29.694Z,82.58
2023-05-09T07:03:30.050Z,78.34
2023-05-09T07:04:29.813Z,79.03
2023-05-09T07:05:30.242Z,82.21
2023-05-09T07:06:29.793Z,78.92
2023-05-09T07:07:29.791Z,77.85
2023-05-09T07:08:29.831Z,78.81
2023-05-09T07:09:29.817Z,90.46
2023-05-09T07:10:30.213Z,97.76
2023-05-09T07:11:34.037Z,88.86
2023-05-09T07:12:31.162Z,89.3
2023-05-09T07:13:30.728Z,82.7
2023-05-09T07:14:30.734Z,81.86
2023-05-09T07:15:41.162Z,85.29
2023-05-09T07:16:35.783Z,75.79
2023-05-09T07:17:34.295Z,77.05
2023-05-09T07:18:34.055Z,73.42
2023-05-09T07:19:34.385Z,75.11
2023-05-09T07:20:34.165Z,75.94
2023-05-09T07:21:34.193Z,76.08
2023-05-09T07:22:36.440Z,77.68
2023-05-09T07:23:34.290Z,76.56
2023-05-09T07:24:34.295Z,75.91
2023-05-09T07:25:34.581Z,75.6
2023-05-09T07:26:37.401Z,74.82
2023-05-09T07:27:35.121Z,79.73
2023-05-09T07:28:34.343Z,85.67
2023-05-09T07:29:34.604Z,74.66
2023-05-09T07:30:34.466Z,74.26
2023-05-09T07:31:36.759Z,77.25
2023-05-09T07:32:35.073Z,77.83
2023-05-09T07:33:34.702Z,78.74
2023-05-09T07:34:35.469Z,77.31
2023-05-09T07:35:34.552Z,75.92
2023-05-09T07:36:35.498Z,75.1
2023-05-09T07:37:34.492Z,72.25
2023-05-09T07:38:34.483Z,70.38
2023-05-09T07:39:34.518Z,79.43
2023-05-09T07:40:34.524Z,75.19
2023-05-09T07:41:34.722Z,75.44
2023-05-09T07:42:34.788Z,69.67
2023-05-09T07:43:34.938Z,71.12
2023-05-09T07:44:34.610Z,72.24
2023-05-09T07:45:34.784Z,73.44
2023-05-09T07:46:37.423Z,74.39
2023-05-09T07:47:34.817Z,68.72
2023-05-09T07:48:34.632Z,70.66
2023-05-09T07:49:34.969Z,80.26
2023-05-09T07:50:34.893Z,86.81
2023-05-09T07:51:34.953Z,68.54
2023-05-09T07:52:34.795Z,68.25
2023-05-09T07:53:34.913Z,65.6
2023-05-09T07:54:34.762Z,66.32
2023-05-09T07:55:34.781Z,69.25
2023-05-09T07:56:34.844Z,62.89
2023-05-09T07:57:34.947Z,65.33
2023-05-09T07:58:34.842Z,64.52
2023-05-09T07:59:34.815Z,67.21
2023-05-09T08:00:35.476Z,65.18
2023-05-09T08:01:35.492Z,71.85
2023-05-09T08:02:35.762Z,61.61
2023-05-09T08:03:35.838Z,66.96
2023-05-09T08:04:35.530Z,68.95
2023-05-09T08:05:35.863Z,68.54
2023-05-09T08:06:35.768Z,76.07
2023-05-09T08:07:35.663Z,79.53
2023-05-09T08:08:36.647Z,71.27
2023-05-09T08:09:35.614Z,78.44
2023-05-09T08:10:35.780Z,71.15
2023-05-09T08:11:35.872Z,68.02
2023-05-09T08:12:35.602Z,63.54
2023-05-09T08:13:36.209Z,67.47
2023-05-09T08:14:35.618Z,58.77
2023-05-09T08:15:35.686Z,59.92
2023-05-09T08:16:35.733Z,70.35
2023-05-09T08:17:35.976Z,69.43
2023-05-09T08:18:35.737Z,64.88
2023-05-09T08:19:35.932Z,65.28
2023-05-09T08:20:35.675Z,66.51
2023-05-09T08:21:35.758Z,69.24
2023-05-09T08:22:35.761Z,67.63
2023-05-09T08:23:35.920Z,65.91
2023-05-09T08:24:40.907Z,67.8
2023-05-09T08:25:37.623Z,76.96
2023-05-09T08:26:37.561Z,73.26
2023-05-09T08:27:38.028Z,68.75
2023-05-09T08:28:37.650Z,68.83
2023-05-09T08:29:37.618Z,67.24
2023-05-09T08:30:37.846Z,68.05
2023-05-09T08:31:37.755Z,67.13
2023-05-09T08:32:37.767Z,70.35
2023-05-09T08:33:39.320Z,66.54
2023-05-09T08:34:37.760Z,80.42
2023-05-09T08:35:37.730Z,65.91
2023-05-09T08:36:37.834Z,71.72
2023-05-09T08:37:37.767Z,66.81
2023-05-09T08:38:37.974Z,76.52
2023-05-09T08:39:37.800Z,62.26
2023-05-09T08:40:38.012Z,63.1
2023-05-09T08:41:38.765Z,72.69
2023-05-09T08:42:38.128Z,70.79
2023-05-09T08:43:39.690Z,68.43
2023-05-09T08:44:38.217Z,63.81
2023-05-09T08:45:50.657Z,64.18
2023-05-09T08:46:44.032Z,71.48
2023-05-09T08:47:42.516Z,70.62
2023-05-09T08:48:43.965Z,69.32
2023-05-09T08:49:42.613Z,62.85
2023-05-09T08:50:45.722Z,61.07
2023-05-09T08:51:42.860Z,58.52
2023-05-09T08:52:43.012Z,66.66
2023-05-09T08:53:43.080Z,76.21
2023-05-09T08:54:43.217Z,67.27
2023-05-09T08:55:43.001Z,71.2
2023-05-09T08:56:43.106Z,58.04
2023-05-09T08:57:42.928Z,61.29
2023-05-09T08:58:42.678Z,58.36
2023-05-09T08:59:43.219Z,60.71
2023-05-09T09:00:43.241Z,68.75
2023-05-09T09:01:44.612Z,73.03
2023-05-09T09:02:43.670Z,71.21
2023-05-09T09:03:43.315Z,67.8
2023-05-09T09:04:42.877Z,62.64
2023-05-09T09:05:43.048Z,65.57
2023-05-09T09:06:43.096Z,60.93
2023-05-09T09:07:43.685Z,56.88
2023-05-09T09:08:44.020Z,60.61
2023-05-09T09:09:45.664Z,66.7
2023-05-09T09:10:44.120Z,65.93
2023-05-09T09:11:43.519Z,59.5
2023-05-09T09:12:43.517Z,60.8
2023-05-09T09:13:43.790Z,59.91
2023-05-09T09:14:46.615Z,65.56
2023-05-09T09:15:43.875Z,60.62
2023-05-09T09:16:44.584Z,66.46
2023-05-09T09:17:43.818Z,68.92
2023-05-09T09:18:44.566Z,67.78
2023-05-09T09:19:44.584Z,75.28
2023-05-09T09:20:45.867Z,58.04
2023-05-09T09:21:45.241Z,59.42
2023-05-09T09:22:43.888Z,58.35
2023-05-09T09:23:44.010Z,59.41
2023-05-09T09:24:43.647Z,70.57
2023-05-09T09:25:45.464Z,59.85
2023-05-09T09:26:45.889Z,60.13
2023-05-09T09:27:43.486Z,66.71
2023-05-09T09:28:43.524Z,60.61
2023-05-09T09:29:43.563Z,64.34
2023-05-09T09:30:44.275Z,56.42
2023-05-09T09:31:44.654Z,55.86
2023-05-09T09:32:43.604Z,58.17
2023-05-09T09:33:43.954Z,56.61
2023-05-09T09:34:43.741Z,60.17
2023-05-09T09:35:43.608Z,57
2023-05-09T09:36:43.829Z,58.51
2023-05-09T09:37:43.673Z,55.14
2023-05-09T09:38:43.691Z,58.87
2023-05-09T09:39:53.332Z,62.64
2023-05-09T09:40:54.808Z,53.31
2023-05-09T09:41:46.513Z,57.2
2023-05-09T09:42:47.841Z,54.66
2023-05-09T09:43:46.518Z,57.04
2023-05-09T09:44:50.853Z,57.05
2023-05-09T09:45:50.567Z,68.84
2023-05-09T09:46:51.392Z,56.54
2023-05-09T09:47:48.735Z,54.71
2023-05-09T09:48:48.237Z,55.33
2023-05-09T09:49:48.202Z,55.32
2023-05-09T09:50:48.278Z,55.38
2023-05-09T09:51:51.273Z,55.79
2023-05-09T09:52:51.820Z,54.83
2023-05-09T09:53:48.748Z,55.38
2023-05-09T09:54:48.557Z,54.91
2023-05-09T09:55:49.549Z,59.31
2023-05-09T09:56:49.686Z,57.76
2023-05-09T09:57:48.643Z,59.87
2023-05-09T09:58:48.639Z,60.97
2023-05-09T09:59:58.002Z,59.04
2023-05-09T10:01:03.932Z,68.97
2023-05-09T10:01:57.606Z,56.45
2023-05-09T10:02:55.684Z,57.15
2023-05-09T10:03:54.372Z,63.18
2023-05-09T10:04:54.501Z,60.23
2023-05-09T10:06:01.187Z,67.37
2023-05-09T10:06:58.976Z,57.1
2023-05-09T10:08:01.924Z,66.91
2023-05-09T10:08:58.597Z,57.83
2023-05-09T10:09:58.678Z,63.56
2023-05-09T10:10:59.513Z,60.32
2023-05-09T10:12:02.369Z,58.98
2023-05-09T10:13:00.187Z,57.01
2023-05-09T10:13:59.078Z,59.67
2023-05-09T10:14:59.128Z,59.64
2023-05-09T10:15:59.509Z,57.41
2023-05-09T10:17:00.829Z,55.51
2023-05-09T10:18:00.634Z,64.96
2023-05-09T10:18:59.403Z,61.22
2023-05-09T10:20:01.624Z,54.42
2023-05-09T10:20:59.402Z,54.23
2023-05-09T10:22:03.373Z,56.09
2023-05-09T10:23:03.949Z,55.15
2023-05-09T10:24:02.425Z,56.83
2023-05-09T10:25:05.332Z,57.38
2023-05-09T10:27:03.798Z,62.74
2023-05-09T10:28:04.541Z,60.77
2023-05-09T10:29:07.510Z,52.51
2023-05-09T10:30:06.888Z,55.4
2023-05-09T10:32:11.939Z,56.62
2023-05-09T10:33:09.672Z,54.71
2023-05-09T10:34:10.183Z,59.21
2023-05-09T10:35:10.313Z,56.01
2023-05-09T10:36:09.013Z,61.5
2023-05-09T10:37:08.471Z,68.15
2023-05-09T10:38:09.118Z,56.88
2023-05-09T10:39:08.518Z,53.18
2023-05-09T10:40:09.022Z,55.85
2023-05-09T10:41:08.704Z,66.16
2023-05-09T10:42:08.485Z,63.87
2023-05-09T10:43:08.703Z,56.6
2023-05-09T10:44:08.517Z,60.81
2023-05-09T10:45:09.234Z,54.93
2023-05-09T10:46:09.103Z,62
2023-05-09T10:47:08.719Z,59.12
2023-05-09T10:48:09.061Z,59.35
2023-05-09T10:49:08.628Z,58.82
2023-05-09T10:50:10.319Z,58.83
2023-05-09T10:51:09.221Z,53.52
2023-05-09T10:52:09.045Z,60.19
2023-05-09T10:53:09.932Z,53.46
2023-05-09T10:55:12.188Z,53.53
2023-05-09T10:57:18.221Z,61.21
2023-05-09T11:02:24.802Z,55.34
2023-05-09T11:03:25.728Z,52.14
2023-05-09T11:04:24.680Z,59.24
2023-05-09T11:05:24.708Z,53.1
2023-05-09T11:07:27.217Z,52.42
2023-05-09T11:08:28.260Z,62.73
2023-05-09T11:10:41.554Z,63.62
2023-05-09T11:11:33.258Z,56.49
2023-05-09T11:12:33.258Z,55.56
2023-05-09T11:13:37.521Z,64.69
2023-05-09T11:15:51.769Z,59.33
2023-05-09T11:17:43.503Z,49.73
2023-05-09T11:18:50.171Z,50.42
2023-05-09T11:20:48.864Z,50.86
2023-05-09T11:22:52.938Z,52.32
2023-05-09T11:23:52.419Z,64.98
2023-05-09T11:24:52.134Z,50.82
2023-05-09T11:25:51.255Z,55.05
2023-05-09T11:26:51.154Z,52.11
2023-05-09T11:27:51.502Z,59.11
2023-05-09T11:28:52.098Z,59.66
2023-05-09T11:29:55.859Z,55.97
2023-05-09T11:30:52.915Z,52.41
2023-05-09T11:32:55.084Z,58.27
2023-05-09T11:34:00.805Z,55.13
2023-05-09T11:35:10.700Z,49.64
2023-05-09T11:38:06.320Z,50.87
2023-05-09T11:39:06.894Z,46.11
2023-05-09T11:40:06.777Z,47.01
2023-05-09T11:41:06.362Z,49.59
2023-05-09T11:42:06.046Z,58.39
2023-05-09T11:43:07.134Z,57.37
2023-05-09T11:45:09.771Z,58.74
2023-05-09T11:46:08.135Z,49.16
2023-05-09T11:47:09.173Z,54.5
2023-05-09T11:48:08.892Z,58.05
2023-05-09T11:49:09.574Z,50.54
2023-05-09T11:50:09.123Z,52.47
2023-05-09T11:51:15.736Z,46.62
2023-05-09T11:52:11.984Z,51.63
2023-05-09T11:53:11.999Z,53.77
2023-05-09T11:54:11.996Z,52.36
2023-05-09T11:55:14.297Z,57.36
2023-05-09T11:56:12.818Z,53.05
2023-05-09T11:57:12.292Z,52.27
2023-05-09T11:58:13.150Z,52.96
2023-05-09T11:59:12.093Z,51.97
2023-05-09T12:00:12.868Z,57.07
2023-05-09T12:01:12.514Z,53.61
2023-05-09T12:02:12.782Z,52.7
2023-05-09T12:03:12.407Z,52.05
2023-05-09T12:04:12.505Z,54.12
2023-05-09T12:05:14.166Z,51.18
2023-05-09T12:06:15.845Z,54.07
2023-05-09T12:07:12.274Z,48.29
2023-05-09T12:08:13.327Z,48.6
2023-05-09T12:09:12.539Z,50.53
2023-05-09T12:10:16.195Z,52.63
2023-05-09T12:11:13.007Z,50.69
2023-05-09T12:12:13.235Z,48.68
2023-05-09T12:13:13.207Z,50.17
2023-05-09T12:15:17.853Z,48.32
2023-05-09T12:16:17.732Z,44.92
2023-05-09T12:17:17.280Z,46.06
2023-05-09T12:18:17.113Z,46
2023-05-09T12:19:18.357Z,47.1
2023-05-09T12:20:17.241Z,49.6
2023-05-09T12:21:17.572Z,47.16
2023-05-09T12:22:17.159Z,50.04
2023-05-09T12:23:18.116Z,49.83
2023-05-09T12:24:20.757Z,48.44
2023-05-09T12:25:17.362Z,45.64
2023-05-09T12:26:17.266Z,50.76
2023-05-09T12:27:17.602Z,44.41
2023-05-09T12:28:17.662Z,50.23
2023-05-09T12:29:17.777Z,45.78
2023-05-09T12:30:17.736Z,48.19
2023-05-09T12:31:17.928Z,48.02
2023-05-09T12:32:17.859Z,59.29
2023-05-09T12:33:17.874Z,51.07
2023-05-09T12:34:17.556Z,53.17
2023-05-09T12:35:20.782Z,52.79
2023-05-09T12:36:17.583Z,44.59
2023-05-09T12:37:18.433Z,45.19
2023-05-09T12:38:21.166Z,46.41
2023-05-09T12:39:18.121Z,48.66
2023-05-09T12:40:17.472Z,50.85
2023-05-09T12:41:35.120Z,55.02
2023-05-09T12:42:18.687Z,52.23
2023-05-09T12:43:18.725Z,47.35
2023-05-09T12:45:19.585Z,53.55
2023-05-09T12:46:19.431Z,46.33
2023-05-09T12:47:18.947Z,42.54
2023-05-09T12:48:20.125Z,42.26
2023-05-09T12:49:22.424Z,46.98
2023-05-09T12:50:19.220Z,45.75
2023-05-09T12:51:19.627Z,45.85
2023-05-09T12:52:19.138Z,49.1
2023-05-09T12:53:26.184Z,45.51
2023-05-09T12:54:23.713Z,46.17
2023-05-09T12:55:22.464Z,40.78
2023-05-09T12:56:22.482Z,48.24
2023-05-09T12:57:23.275Z,44.79
2023-05-09T12:58:22.501Z,44
2023-05-09T12:59:26.557Z,42.38
2023-05-09T13:00:22.803Z,43.69
2023-05-09T13:01:29.309Z,39.87
2023-05-09T13:02:26.485Z,43.6
2023-05-09T13:03:27.036Z,45.73
2023-05-09T13:04:26.998Z,49.53
2023-05-09T13:05:26.013Z,44.94
2023-05-09T13:06:26.026Z,51.1
2023-05-09T13:07:26.057Z,42.99
2023-05-09T13:08:26.409Z,43.05
2023-05-09T13:09:26.597Z,48.1
2023-05-09T13:10:26.898Z,48.62
2023-05-09T13:11:26.315Z,46.3
2023-05-09T13:12:26.172Z,49.61
2023-05-09T13:13:26.806Z,48.25
2023-05-09T13:14:26.321Z,50.14
2023-05-09T13:15:26.926Z,48.95
2023-05-09T13:16:26.262Z,45.7
2023-05-09T13:17:26.287Z,45.85
2023-05-09T13:18:26.477Z,44.81
2023-05-09T13:19:26.401Z,45.81
2023-05-09T13:20:26.270Z,44.29
2023-05-09T13:21:26.240Z,54.25
2023-05-09T13:22:26.325Z,44.69
2023-05-09T13:23:26.279Z,45.84
2023-05-09T13:24:26.285Z,43.32
2023-05-09T13:25:26.399Z,46.34
2023-05-09T13:26:26.378Z,46.84
2023-05-09T13:27:26.392Z,42.55
2023-05-09T13:28:26.377Z,40.73
2023-05-09T13:29:26.385Z,43.42
2023-05-09T13:30:26.843Z,43.96
2023-05-09T13:31:26.448Z,43.87
2023-05-09T13:32:26.563Z,43.65
2023-05-09T13:33:26.924Z,43.25
2023-05-09T13:34:26.465Z,45.89
2023-05-09T13:35:27.010Z,39.65
2023-05-09T13:36:26.703Z,46.49
2023-05-09T13:37:26.677Z,45.31
2023-05-09T13:38:26.911Z,44.47
2023-05-09T13:39:26.545Z,44.69
2023-05-09T13:40:26.743Z,44.98
2023-05-09T13:41:26.785Z,51.3
2023-05-09T13:42:27.270Z,41.04
2023-05-09T13:43:26.855Z,43.01
2023-05-09T13:44:26.881Z,55.11
2023-05-09T13:45:26.649Z,53.32
2023-05-09T13:46:26.778Z,53.74
2023-05-09T13:47:26.973Z,48.04
2023-05-09T13:48:26.922Z,45.23
2023-05-09T13:49:26.887Z,44.32
2023-05-09T13:50:26.737Z,41.3
2023-05-09T13:51:26.746Z,40.95
2023-05-09T13:52:26.983Z,46.2
2023-05-09T13:53:27.092Z,48.1